Weather reports worldwide

Advertisment
East malling, United Kingdom (99008): temperature & dewpoint: 12.01.2018 14:00:00 - 18.01.2018 14:00:00 (GMT)East malling, United Kingdom (99008): temperature -20cm: 12.01.2018 14:00:00 - 18.01.2018 14:00:00 (GMT)East malling, United Kingdom (99008): wind speed & gusts: 12.01.2018 14:00:00 - 18.01.2018 14:00:00 (GMT)East malling, United Kingdom (99008): wind direction: 12.01.2018 14:00:00 - 18.01.2018 14:00:00 (GMT)East malling, United Kingdom (99008): reduced air pressure: 12.01.2018 14:00:00 - 18.01.2018 14:00:00 (GMT)East malling, United Kingdom (99008): sunshine duration: 12.01.2018 14:00:00 - 18.01.2018 14:00:00 (GMT)East malling, United Kingdom (99008): precipitation: 12.01.2018 14:00:00 - 18.01.2018 14:00:00 (GMT)
Date & Time tt [°C] td [°C] tt -20cm [°C] ff [km/h] ff [kn] fx [km/h] fx [kn] dd ppp [hPa] sd [min] rr [mm]
18.01.2018 14:00:00 - - - - - - - - - - -
18.01.2018 13:00:00 8,5 1,5 - 22 12 - - W 1002,3 36 0,0
18.01.2018 12:00:00 8,4 1,5 - 21 11 - - W 1002,6 54 0,0
18.01.2018 11:00:00 7,8 1,0 - 24 13 46 25 W 1002,6 60 0,0
18.01.2018 10:00:00 7,2 1,0 - 31 17 52 28 W 1001,8 60 0,0
18.01.2018 09:00:00 7,0 0,4 5,4 29 16 54 29 W 1000,7 36 0,0
18.01.2018 08:00:00 7,5 0,4 - 31 17 80 43 WNW 998,9 0 0,0
18.01.2018 07:00:00 9,2 1,1 - 44 24 81 44 W 996,2 0 0,0
18.01.2018 06:00:00 10,1 2,9 - 39 21 81 44 W 993,8 0 0,0
18.01.2018 05:00:00 11,3 4,2 - 44 24 74 40 W 992,0 0 0,0
18.01.2018 04:00:00 10,9 7,2 - 34 18 68 37 WSW 991,5 0 0,0
18.01.2018 03:00:00 10,5 7,9 - 34 18 57 31 WSW 992,9 0 0,4
18.01.2018 02:00:00 9,4 8,2 - 29 16 52 28 SW 994,4 0 0,8
18.01.2018 01:00:00 7,9 7,1 - 26 14 55 30 SSW 996,9 0 1,8
18.01.2018 00:00:00 6,6 5,1 - 29 16 50 27 SSW 999,8 - 0,8
17.01.2018 23:00:00 6,3 3,8 - 18 10 - - SSW 1003,1 0 0,2
17.01.2018 22:00:00 5,8 2,4 - 16 9 - - SSW 1005,8 0 0,0
17.01.2018 21:00:00 5,3 1,2 - 16 9 - - SW 1007,7 0 0,0
17.01.2018 20:00:00 4,9 0,5 - 18 10 - - SSW 1008,8 0 0,0
17.01.2018 19:00:00 4,2 -0,1 - 11 6 - - SSW 1009,4 0 0,0
17.01.2018 18:00:00 5,5 -0,3 - 16 9 - - WSW 1009,6 0 0,0
17.01.2018 17:00:00 6,3 -1,0 - 18 10 - - WSW 1009,5 18 0,0
17.01.2018 16:00:00 6,4 -1,4 - 21 11 - - W 1009,1 24 0,0
17.01.2018 15:00:00 7,2 -1,6 - 26 14 54 29 W 1008,8 42 0,0
17.01.2018 14:00:00 7,1 -0,6 - 24 13 46 25 W 1008,2 36 0,0
17.01.2018 13:00:00 7,1 -1,2 - 28 15 52 28 W 1008,0 48 0,0
17.01.2018 12:00:00 6,5 -0,9 - 31 17 52 28 W 1007,7 54 0,0
17.01.2018 11:00:00 5,7 -0,9 - 26 14 50 27 W 1007,5 60 0,0
17.01.2018 10:00:00 4,9 -1,1 - 28 15 48 26 W 1006,4 60 0,0
17.01.2018 09:00:00 4,0 -1,4 3,7 26 14 54 29 W 1005,3 18 0,0
17.01.2018 08:00:00 3,8 -1,5 - 29 16 55 30 W 1004,0 0 0,0
17.01.2018 07:00:00 3,3 -2,0 - 26 14 48 26 W 1002,2 0 0,0
17.01.2018 06:00:00 3,1 -2,4 - 28 15 46 25 W 1001,2 0 0,0
17.01.2018 05:00:00 2,8 -2,3 - 22 12 48 26 W 1000,1 0 0,0
17.01.2018 04:00:00 2,5 -1,4 - 22 12 54 29 W 999,5 0 0,0
17.01.2018 03:00:00 3,0 -1,8 - 26 14 50 27 W 998,2 0 0,0
17.01.2018 02:00:00 2,7 -1,7 - 24 13 46 25 W 997,6 0 0,0
17.01.2018 01:00:00 2,9 -1,6 - 26 14 - - W 996,4 0 0,0
17.01.2018 00:00:00 3,1 -0,6 - 26 14 - - W 995,9 - 0,0
16.01.2018 23:00:00 2,8 -0,4 - 18 10 - - WSW 995,3 0 0,0
16.01.2018 22:00:00 3,0 0,3 - 22 12 - - WSW 995,2 0 0,0
16.01.2018 21:00:00 2,6 1,0 - 18 10 - - WSW 995,1 0 0,0
16.01.2018 20:00:00 2,1 1,0 - 16 9 - - SW 995,1 0 0,0
16.01.2018 19:00:00 2,8 1,3 - 18 10 - - SW 995,3 0 1,2
16.01.2018 18:00:00 4,7 0,9 - 24 13 - - WSW 995,7 0 0,0
16.01.2018 17:00:00 5,3 -0,3 - 21 11 - - SW 995,6 6 0,0
16.01.2018 16:00:00 5,9 -1,6 - 18 10 48 26 WSW 996,1 0 0,0
16.01.2018 15:00:00 6,7 -1,7 - 26 14 57 31 W 996,3 36 0,0
16.01.2018 14:00:00 6,9 -0,8 - 24 13 46 25 W 996,3 30 0,0
16.01.2018 13:00:00 7,2 -0,3 - 24 13 52 28 W 996,4 42 0,0
16.01.2018 12:00:00 6,4 0,4 - 24 13 46 25 W 997,0 18 0,0
16.01.2018 11:00:00 6,3 0,2 - 26 14 50 27 W 997,2 54 0,0
16.01.2018 10:00:00 6,3 -0,2 - 26 14 48 26 W 996,7 54 0,0
16.01.2018 09:00:00 5,5 0,6 5,5 22 12 - - WSW 996,2 6 0,0
16.01.2018 08:00:00 5,6 1,0 - 21 11 - - W 995,6 0 0,0
16.01.2018 07:00:00 5,7 1,7 - 18 10 - - W 995,0 0 0,0
16.01.2018 06:00:00 6,3 2,2 - 22 12 - - W 993,9 0 0,0
16.01.2018 05:00:00 5,9 3,2 - 16 9 - - WSW 993,4 0 0,0
16.01.2018 04:00:00 6,3 3,6 - 18 10 - - WSW 993,8 0 0,0
16.01.2018 03:00:00 6,3 3,8 - 18 10 - - SW 994,1 0 0,0
16.01.2018 02:00:00 6,9 3,3 - 21 11 - - WSW 994,3 0 0,0
16.01.2018 01:00:00 6,5 3,2 - 22 12 - - WSW 994,5 0 0,0
16.01.2018 00:00:00 6,2 3,5 - 22 12 - - WSW 994,7 - 0,0
15.01.2018 23:00:00 6,3 3,2 - 21 11 - - SW 995,4 0 0,0
15.01.2018 22:00:00 6,5 3,7 - 21 11 - - SW 995,6 0 0,0
15.01.2018 21:00:00 6,5 3,3 - 18 10 - - WSW 995,1 0 0,0
15.01.2018 20:00:00 6,9 3,6 - 15 8 - - WSW 994,8 0 0,0
15.01.2018 19:00:00 8,4 4,5 - 22 12 46 25 W 994,7 0 0,0
15.01.2018 18:00:00 9,0 5,0 - 22 12 - - W 993,5 0 0,0
15.01.2018 17:00:00 9,6 6,5 - 15 8 - - WSW 992,8 12 0,0
15.01.2018 16:00:00 9,9 6,6 - 18 10 - - W 992,1 0 0,0
15.01.2018 15:00:00 10,3 7,8 - 22 12 - - WSW 991,9 6 0,4
15.01.2018 14:00:00 10,3 9,2 - 21 11 - - SW 991,8 0 0,2
15.01.2018 13:00:00 9,7 8,6 - 22 12 - - SSW 993,0 0 0,2
15.01.2018 12:00:00 9,0 7,9 - 21 11 48 26 SSW 994,9 0 1,8
15.01.2018 11:00:00 8,6 7,6 - 26 14 46 25 SSW 997,8 0 1,4
15.01.2018 10:00:00 8,3 7,2 - 31 17 57 31 SSW 999,1 0 0,0
15.01.2018 09:00:00 7,5 6,5 5,7 29 16 54 29 SSW 1000,6 0 0,6
15.01.2018 08:00:00 7,4 6,0 - 31 17 52 28 SSW 1002,1 0 0,6
15.01.2018 07:00:00 7,5 6,0 - 28 15 48 26 SSW 1003,7 0 0,4
15.01.2018 06:00:00 7,4 5,9 - 28 15 48 26 SSW 1005,4 0 0,6
15.01.2018 05:00:00 7,4 5,6 - 24 13 - - S 1006,9 0 0,0
15.01.2018 04:00:00 6,9 4,2 - 16 9 - - SSW 1009,0 0 0,0
15.01.2018 03:00:00 6,6 3,8 - 13 7 - - SSW 1010,4 0 0,0
15.01.2018 02:00:00 5,5 3,2 - 11 6 - - S 1011,3 0 0,0
15.01.2018 01:00:00 4,8 2,2 - 11 6 - - S 1012,4 0 0,0
15.01.2018 00:00:00 4,4 1,7 - 9 5 - - SSE 1014,0 - 0,0
14.01.2018 23:00:00 4,5 1,3 - 5 3 - - SSW 1015,1 0 0,0
14.01.2018 22:00:00 4,6 1,1 - 9 5 - - SSW 1016,0 0 0,0
14.01.2018 21:00:00 4,6 2,0 - 9 5 - - SSW 1016,7 0 0,0
14.01.2018 20:00:00 4,4 2,0 - 8 4 - - SSW 1017,2 0 0,0
14.01.2018 19:00:00 4,2 1,9 - 8 4 - - SSW 1017,2 0 0,0
14.01.2018 18:00:00 4,6 1,8 - 8 4 - - S 1017,0 0 0,0
14.01.2018 17:00:00 4,7 1,8 - 2 1 - - SE 1017,0 18 0,0
14.01.2018 16:00:00 5,7 1,7 - 4 2 - - NE 1017,2 18 0,0
14.01.2018 15:00:00 6,3 1,1 - 4 2 - - SSW 1017,3 18 0,0
14.01.2018 14:00:00 6,2 1,4 - 4 2 - - SSE 1017,4 6 0,0
14.01.2018 13:00:00 6,7 1,4 - 8 4 - - ENE 1017,9 54 0,0
14.01.2018 12:00:00 6,9 1,7 - 9 5 - - E 1018,4 30 0,0
14.01.2018 11:00:00 6,3 1,5 - 8 4 - - E 1018,9 24 0,0
14.01.2018 10:00:00 5,5 1,7 - 4 2 - - E 1019,0 0 0,0
14.01.2018 09:00:00 4,9 1,1 5,0 5 3 - - ENE 1018,7 0 0,0
14.01.2018 08:00:00 4,4 1,0 - 4 2 - - NE 1018,5 0 0,0
14.01.2018 07:00:00 4,2 0,9 - 4 2 - - ENE 1018,5 0 0,0
14.01.2018 06:00:00 3,9 1,0 - 5 3 - - NNE 1018,7 0 0,0
14.01.2018 05:00:00 3,2 1,4 - 4 2 - - NNE 1018,8 0 0,0
14.01.2018 04:00:00 1,9 0,2 - 0 0 - - N 1019,0 0 0,0
14.01.2018 03:00:00 2,1 -0,3 - 8 4 - - NE 1019,1 0 0,0
14.01.2018 02:00:00 3,9 0,8 - 9 5 - - E 1019,1 0 -
14.01.2018 01:00:00 4,0 1,0 - 9 5 - - ENE 1019,2 0 0,0
14.01.2018 00:00:00 4,1 1,0 - 13 7 - - E 1019,4 - 0,0
13.01.2018 23:00:00 4,2 1,1 - 9 5 - - E 1019,7 0 0,0
13.01.2018 22:00:00 4,3 1,4 - 9 5 - - ESE 1019,8 0 0,0
13.01.2018 21:00:00 4,3 1,5 - 9 5 - - ESE 1020,0 0 0,0
13.01.2018 20:00:00 4,3 1,8 - 13 7 - - ESE 1019,8 0 0,0
13.01.2018 19:00:00 4,7 2,2 - 15 8 - - ESE 1019,7 0 0,0
13.01.2018 18:00:00 5,0 2,4 - 11 6 - - SSE 1019,8 0 0,0
13.01.2018 17:00:00 5,3 2,6 - 9 5 - - SSE 1019,7 0 0,0
13.01.2018 16:00:00 5,3 2,4 - 15 8 - - SSE 1019,6 0 0,0
13.01.2018 15:00:00 5,8 3,0 - 11 6 - - SE 1019,6 0 0,0
13.01.2018 14:00:00 6,0 3,4 - 9 5 - - SE 1019,8 0 0,0
13.01.2018 13:00:00 6,0 3,2 - 13 7 - - SSE 1020,3 0 0,0
13.01.2018 12:00:00 5,6 3,4 - 15 8 - - SE 1021,1 0 0,0
13.01.2018 11:00:00 5,8 3,2 - 22 12 - - SSE 1021,5 0 0,0
13.01.2018 10:00:00 6,0 3,6 - 15 8 - - SE 1021,2 0 0,0
13.01.2018 09:00:00 5,8 4,0 5,7 16 9 - - SE 1021,0 6 0,0
13.01.2018 08:00:00 5,6 3,5 - 13 7 - - SE 1021,1 0 0,0
13.01.2018 07:00:00 5,4 3,1 - 16 9 - - SE 1021,0 0 0,0
13.01.2018 06:00:00 5,3 2,8 - 13 7 - - SE 1021,3 0 0,0
13.01.2018 05:00:00 5,0 2,8 - 13 7 - - SE 1021,6 0 0,0
13.01.2018 04:00:00 4,9 2,6 - 11 6 - - SE 1022,3 0 0,0
13.01.2018 03:00:00 5,2 2,8 - 11 6 - - SSE 1022,9 0 0,0
13.01.2018 02:00:00 5,1 3,0 - 9 5 - - S 1023,2 0 0,0
13.01.2018 01:00:00 5,4 3,5 - 13 7 - - S 1023,6 0 0,0
13.01.2018 00:00:00 5,4 3,5 - 8 4 - - SE 1023,9 - 0,0
12.01.2018 23:00:00 5,2 3,7 - 8 4 - - SSE 1024,6 0 0,0
12.01.2018 22:00:00 4,9 3,7 - 5 3 - - SSE 1024,9 0 0,0
12.01.2018 21:00:00 4,5 3,2 - 5 3 - - S 1025,2 0 0,0
12.01.2018 20:00:00 5,0 3,8 - 8 4 - - SSE 1025,4 0 0,0
12.01.2018 19:00:00 5,1 3,5 - 9 5 - - S 1025,4 0 0,0
12.01.2018 18:00:00 5,5 4,1 - 11 6 - - SSE 1025,4 0 0,0
12.01.2018 17:00:00 6,1 3,9 - 9 5 - - SE 1025,5 6 0,0
12.01.2018 16:00:00 6,9 4,5 - 9 5 - - SSE 1025,7 0 0,0
12.01.2018 15:00:00 7,2 5,0 - 9 5 - - SSE 1025,7 0 0,0
12.01.2018 14:00:00 7,5 4,6 - 4 2 - - S 1026,0 0 0,0

tt = temperature
td = dewpoint
tt -20cm = temperature -20cm
ff = wind speed
fx = gusts
dd = wind direction
ppp = reduced air pressure
sd = sunshine duration
rr = precipitation

Next stations